Time;durP1;ratioP1;P1;durP2;ratioP2;P2;SDS_P1;SDS_P2;PMS_P1;PMS_P2;Temp;Humidity;BMP_temperature;BMP_pressure;BME280_temperature;BME280_humidity;BME280_pressure;Samples;Min_cycle;Max_cycle;Signal;HPM_P1;HPM_P2
2021/12/22 00:01:07;;;;;;;23.60;17.27;;;;;;;-0.19;66.30;96293.78;4957660;28;20208;-81
2021/12/22 00:03:34;;;;;;;22.83;17.10;;;;;;;-0.26;66.87;96289.22;4956646;28;20237;-81
2021/12/22 00:06:00;;;;;;;22.83;16.50;;;;;;;-0.22;66.42;96293.19;4956188;29;20229;-81
2021/12/22 00:08:27;;;;;;;21.90;16.10;;;;;;;-0.19;66.54;96287.94;4957141;28;20579;-81
2021/12/22 00:10:54;;;;;;;21.87;16.57;;;;;;;-0.12;66.31;96291.72;4957384;28;20205;-81
2021/12/22 00:13:20;;;;;;;20.70;16.10;;;;;;;-0.03;66.33;96293.69;4958864;28;20258;-81
2021/12/22 00:15:47;;;;;;;20.20;15.90;;;;;;;-0.07;66.14;96292.25;4956103;29;20252;-81
2021/12/22 00:18:14;;;;;;;21.40;15.60;;;;;;;-0.02;66.05;96300.38;4957038;28;20240;-81
2021/12/22 00:20:41;;;;;;;20.20;14.77;;;;;;;0.06;65.78;96290.56;4957119;28;20205;-81
2021/12/22 00:23:10;;;;;;;21.10;16.33;;;;;;;-0.07;65.75;96302.38;4956094;28;20236;-81
2021/12/22 00:25:37;;;;;;;23.23;16.47;;;;;;;-0.09;65.84;96305.00;4956555;28;20239;-81
2021/12/22 00:28:03;;;;;;;22.37;16.40;;;;;;;-0.10;66.10;96302.56;4956646;28;20205;-81
2021/12/22 00:30:30;;;;;;;25.23;16.27;;;;;;;-0.04;66.00;96299.66;4956305;28;20566;-81
2021/12/22 00:33:03;;;;;;;20.70;15.37;;;;;;;0.01;66.21;96302.69;4956061;28;20251;-81
2021/12/22 00:35:39;;;;;;;22.20;15.33;;;;;;;0.05;65.58;96296.53;4956642;29;20216;-81
2021/12/22 00:38:05;;;;;;;26.53;16.40;;;;;;;0.02;65.99;96301.78;4956717;28;20694;-81
2021/12/22 00:40:31;;;;;;;22.50;15.97;;;;;;;0.06;65.86;96299.88;4957074;29;20201;-81
2021/12/22 00:42:58;;;;;;;19.77;15.23;;;;;;;0.02;65.66;96298.44;4956112;28;20262;-81
2021/12/22 00:45:28;;;;;;;19.17;15.07;;;;;;;-0.04;65.83;96302.19;4958620;28;20224;-81
2021/12/22 00:47:54;;;;;;;20.17;15.57;;;;;;;-0.07;66.15;96302.38;4960715;28;20204;-81
2021/12/22 00:50:22;;;;;;;20.93;15.43;;;;;;;-0.10;65.83;96305.09;4955816;28;20193;-81
2021/12/22 00:52:50;;;;;;;21.37;15.87;;;;;;;-0.09;66.24;96299.94;4956017;28;20236;-81
2021/12/22 00:55:19;;;;;;;19.57;15.37;;;;;;;0.03;66.12;96302.59;4955547;28;20209;-81
2021/12/22 00:57:45;;;;;;;17.67;14.53;;;;;;;0.04;65.51;96309.28;4957091;28;20268;-81
2021/12/22 01:00:12;;;;;;;20.87;15.63;;;;;;;0.01;65.85;96302.69;4959493;28;20201;-81
2021/12/22 01:02:39;;;;;;;19.47;15.10;;;;;;;-0.03;65.61;96308.88;4959217;28;20263;-81
2021/12/22 01:05:06;;;;;;;20.87;14.60;;;;;;;-0.04;65.82;96305.53;4958905;28;20627;-81
2021/12/22 01:07:33;;;;;;;20.53;14.07;;;;;;;0.06;65.86;96304.94;4958942;28;20223;-81
2021/12/22 01:10:01;;;;;;;19.70;14.43;;;;;;;0.06;65.72;96308.28;4958925;29;20201;-81
2021/12/22 01:12:27;;;;;;;19.03;15.40;;;;;;;-0.01;65.53;96312.13;4958472;28;20288;-81
2021/12/22 01:14:54;;;;;;;19.43;14.90;;;;;;;-0.07;65.59;96312.50;4959165;28;20208;-81
2021/12/22 01:17:20;;;;;;;16.27;13.47;;;;;;;-0.05;66.03;96316.56;4959426;28;20458;-81
2021/12/22 01:19:56;;;;;;;16.97;14.10;;;;;;;-0.01;66.16;96324.78;4959539;28;20676;-81
2021/12/22 01:22:31;;;;;;;20.67;14.40;;;;;;;0.03;65.43;96331.25;4957842;28;20232;-81
2021/12/22 01:25:02;;;;;;;15.67;13.90;;;;;;;0.07;65.64;96329.34;4960032;28;20200;-81
2021/12/22 01:27:34;;;;;;;16.70;12.83;;;;;;;0.05;65.22;96334.50;4959310;28;20196;-81
2021/12/22 01:30:01;;;;;;;18.40;14.00;;;;;;;0.05;65.29;96334.50;4959630;28;20200;-81
2021/12/22 01:32:28;;;;;;;18.33;13.77;;;;;;;-0.03;64.97;96326.59;4958312;28;20265;-81
2021/12/22 01:34:54;;;;;;;17.20;13.80;;;;;;;-0.15;64.83;96329.84;4958948;28;20200;-81
2021/12/22 01:37:20;;;;;;;16.53;13.37;;;;;;;-0.25;65.30;96332.13;4957848;28;20238;-81
2021/12/22 01:39:47;;;;;;;19.37;13.97;;;;;;;-0.21;65.70;96330.25;4973152;28;20211;-81
2021/12/22 01:42:13;;;;;;;17.87;13.77;;;;;;;-0.23;65.32;96339.63;4971004;28;20239;-82
2021/12/22 01:45:00;;;;;;;16.93;13.07;;;;;;;-0.28;65.40;96331.50;4959735;28;20205;-82
2021/12/22 01:50:16;;;;;;;15.87;13.17;;;;;;;-0.31;65.27;96334.22;4943008;28;20208;-82
2021/12/22 01:52:43;;;;;;;16.73;13.90;;;;;;;-0.40;64.90;96333.06;4958806;28;20241;-82
2021/12/22 01:55:24;;;;;;;19.10;13.73;;;;;;;-0.39;65.27;96324.56;4959890;28;20201;-81
2021/12/22 01:57:51;;;;;;;17.03;13.17;;;;;;;-0.40;64.94;96322.94;4959225;28;20224;-81
2021/12/22 02:00:22;;;;;;;19.47;13.47;;;;;;;-0.43;65.16;96321.41;4959874;28;20204;-81
2021/12/22 02:02:49;;;;;;;19.43;13.80;;;;;;;-0.43;64.99;96326.47;4959525;28;20236;-82
2021/12/22 02:05:16;;;;;;;15.97;13.50;;;;;;;-0.48;65.59;96322.56;4959132;29;20204;-81
2021/12/22 02:07:42;;;;;;;17.00;13.23;;;;;;;-0.49;65.45;96321.75;4958691;28;20676;-81
2021/12/22 02:10:27;;;;;;;17.23;13.00;;;;;;;-0.49;65.38;96315.88;4958711;28;20205;-81
2021/12/22 02:12:56;;;;;;;17.17;13.47;;;;;;;-0.49;64.81;96319.22;4939535;28;20301;-82
2021/12/22 02:15:23;;;;;;;16.23;12.67;;;;;;;-0.48;65.05;96320.84;4948929;29;20692;-82
2021/12/22 02:17:50;;;;;;;18.00;13.20;;;;;;;-0.54;64.76;96321.19;4959151;28;20200;-81
2021/12/22 02:20:19;;;;;;;16.60;12.90;;;;;;;-0.45;65.42;96322.38;4960315;28;20236;-82
2021/12/22 02:22:45;;;;;;;19.40;14.00;;;;;;;-0.43;65.12;96318.88;4958819;28;20775;-82
2021/12/22 02:25:17;;;;;;;18.63;13.17;;;;;;;-0.39;64.73;96314.44;4958583;28;20215;-82
2021/12/22 02:27:49;;;;;;;18.37;13.83;;;;;;;-0.36;64.71;96315.06;4959195;28;20201;-82
2021/12/22 02:30:22;;;;;;;17.37;13.00;;;;;;;-0.37;65.03;96315.94;4958792;29;20224;-82
2021/12/22 02:33:09;;;;;;;17.97;13.83;;;;;;;-0.36;64.67;96319.28;4958972;28;20229;-82
2021/12/22 02:35:42;;;;;;;17.40;13.83;;;;;;;-0.41;64.69;96318.78;4957900;28;20205;-81
2021/12/22 02:38:15;;;;;;;16.27;13.20;;;;;;;-0.46;64.63;96321.56;4959970;28;20201;-82
2021/12/22 02:40:42;;;;;;;19.73;13.80;;;;;;;-0.47;65.26;96327.53;4968088;28;20208;-82
2021/12/22 02:43:08;;;;;;;18.33;13.70;;;;;;;-0.40;65.36;96336.41;4959013;28;20241;-82
2021/12/22 02:45:36;;;;;;;19.40;14.17;;;;;;;-0.46;64.81;96333.41;4961958;28;20204;-82
2021/12/22 02:48:04;;;;;;;19.27;13.63;;;;;;;-0.50;64.60;96329.44;4964956;28;20207;-82
2021/12/22 02:50:32;;;;;;;19.43;14.63;;;;;;;-0.67;64.95;96335.47;4958610;28;20204;-81
2021/12/22 02:53:05;;;;;;;20.33;13.50;;;;;;;-0.63;65.06;96324.28;4958735;28;20248;-82
2021/12/22 02:55:43;;;;;;;18.10;14.53;;;;;;;-0.58;65.33;96332.44;4958261;28;20205;-82
2021/12/22 02:58:13;;;;;;;19.07;13.97;;;;;;;-0.62;65.02;96335.22;4958689;28;20192;-81
2021/12/22 03:00:49;;;;;;;18.80;14.30;;;;;;;-0.68;64.63;96326.25;4958743;28;20286;-81
2021/12/22 03:03:29;;;;;;;20.73;14.23;;;;;;;-0.86;65.06;96328.16;4958332;28;20236;-81
2021/12/22 03:05:57;;;;;;;19.97;13.73;;;;;;;-0.87;65.37;96338.34;4957326;29;20227;-82
2021/12/22 03:08:25;;;;;;;20.63;14.33;;;;;;;-0.82;65.20;96322.03;4958829;29;20216;-82
2021/12/22 03:10:53;;;;;;;19.57;14.40;;;;;;;-0.76;64.70;96324.19;4958803;29;20215;-82
2021/12/22 03:13:21;;;;;;;16.93;13.53;;;;;;;-0.78;64.62;96325.19;4957341;28;20236;-81
2021/12/22 03:15:47;;;;;;;17.83;14.07;;;;;;;-0.77;64.74;96327.59;4957927;28;20216;-81
2021/12/22 03:18:14;;;;;;;20.20;14.20;;;;;;;-0.85;64.88;96331.50;4958020;28;20208;-81
2021/12/22 03:20:41;;;;;;;19.20;14.10;;;;;;;-0.81;65.14;96327.88;4956875;28;20197;-81
2021/12/22 03:23:08;;;;;;;18.00;13.53;;;;;;;-0.84;65.13;96336.47;4956920;28;20236;-82
2021/12/22 03:25:37;;;;;;;20.43;14.00;;;;;;;-0.95;64.58;96332.91;4957845;28;20216;-81
2021/12/22 03:28:04;;;;;;;20.90;14.50;;;;;;;-1.01;64.83;96339.16;4958699;28;20264;-81
2021/12/22 03:30:32;;;;;;;18.07;13.77;;;;;;;-1.03;65.04;96338.41;4958517;29;20224;-81
2021/12/22 03:32:59;;;;;;;20.30;14.07;;;;;;;-1.00;64.91;96345.00;4958256;28;20229;-81
2021/12/22 03:35:25;;;;;;;20.13;14.90;;;;;;;-0.95;64.84;96333.72;4958670;28;20581;-81
2021/12/22 03:37:55;;;;;;;18.40;13.80;;;;;;;-0.86;64.67;96329.88;4958338;28;20201;-81
2021/12/22 03:40:23;;;;;;;19.77;14.50;;;;;;;-0.84;64.18;96335.66;4976533;28;20255;-82
2021/12/22 03:42:51;;;;;;;17.17;14.33;;;;;;;-0.86;64.36;96322.28;4967388;28;20260;-81
2021/12/22 03:45:17;;;;;;;19.00;13.63;;;;;;;-0.85;63.89;96331.50;4958804;28;20209;-82
2021/12/22 03:47:44;;;;;;;19.77;14.90;;;;;;;-0.99;63.76;96328.94;4967369;28;20583;-82
2021/12/22 03:50:14;;;;;;;17.03;13.47;;;;;;;-1.03;64.35;96335.06;4957501;29;20196;-82
2021/12/22 03:52:41;;;;;;;18.17;13.90;;;;;;;-1.04;64.07;96329.22;4956367;28;20264;-81
2021/12/22 03:55:09;;;;;;;19.87;14.17;;;;;;;-1.03;64.48;96333.38;4958236;28;20378;-81
2021/12/22 03:57:35;;;;;;;19.27;13.83;;;;;;;-0.99;64.32;96332.28;4957373;28;20204;-81
2021/12/22 04:00:05;;;;;;;20.97;14.27;;;;;;;-1.05;64.12;96333.44;4957633;29;20639;-81
2021/12/22 04:02:31;;;;;;;17.23;14.10;;;;;;;-0.99;64.22;96334.81;4956876;28;20237;-81
2021/12/22 04:04:57;;;;;;;19.77;14.30;;;;;;;-0.96;64.11;96333.84;4956858;28;20272;-81
2021/12/22 04:07:24;;;;;;;20.00;13.87;;;;;;;-0.92;63.94;96337.78;4957076;29;20241;-81
2021/12/22 04:09:52;;;;;;;19.50;13.67;;;;;;;-0.97;63.99;96349.91;4957582;28;20200;-81
2021/12/22 04:12:19;;;;;;;19.60;13.87;;;;;;;-1.01;63.97;96346.72;4956734;28;20295;-81
2021/12/22 04:14:45;;;;;;;16.70;13.37;;;;;;;-1.03;64.26;96348.53;4956891;29;20205;-81
2021/12/22 04:17:13;;;;;;;21.23;13.93;;;;;;;-1.12;64.32;96339.72;4957691;29;20191;-82
2021/12/22 04:19:39;;;;;;;19.40;13.83;;;;;;;-1.12;64.57;96344.78;4957112;28;20201;-81
2021/12/22 04:22:06;;;;;;;17.80;13.73;;;;;;;-1.13;64.41;96345.69;4956524;28;20240;-81
2021/12/22 04:24:33;;;;;;;19.43;13.73;;;;;;;-1.13;64.74;96360.84;4956762;29;20657;-82
2021/12/22 04:26:59;;;;;;;16.80;13.53;;;;;;;-1.11;64.10;96350.66;4957265;28;20217;-82
2021/12/22 04:29:25;;;;;;;17.53;13.27;;;;;;;-1.03;64.47;96357.81;4957666;29;20208;-81
2021/12/22 04:31:52;;;;;;;19.30;13.90;;;;;;;-0.98;64.09;96371.00;4956355;28;20235;-81
2021/12/22 04:34:20;;;;;;;16.33;12.87;;;;;;;-1.00;63.49;96362.69;4956505;28;20267;-82
2021/12/22 04:36:46;;;;;;;17.07;13.73;;;;;;;-1.08;63.91;96361.41;4957058;29;20197;-82
2021/12/22 04:39:13;;;;;;;15.97;12.80;;;;;;;-1.13;64.14;96363.38;4966471;28;20208;-82
2021/12/22 04:41:39;;;;;;;15.37;12.70;;;;;;;-1.12;64.17;96365.00;4977041;28;20246;-81
2021/12/22 04:44:06;;;;;;;17.33;13.30;;;;;;;-1.06;63.96;96358.81;4957261;29;20232;-82
2021/12/22 04:46:32;;;;;;;18.50;13.57;;;;;;;-1.04;63.80;96359.53;4966553;28;20223;-81
2021/12/22 04:48:59;;;;;;;16.80;13.30;;;;;;;-1.12;63.59;96352.38;4957813;29;20208;-82
2021/12/22 04:51:29;;;;;;;17.50;13.53;;;;;;;-1.09;64.28;96358.97;4956690;28;20224;-81
2021/12/22 04:54:03;;;;;;;17.33;13.50;;;;;;;-1.14;64.04;96356.69;4947774;28;20217;-82
2021/12/22 04:56:30;;;;;;;16.50;12.80;;;;;;;-1.17;64.08;96363.66;4955753;28;20256;-82
2021/12/22 04:58:56;;;;;;;17.87;13.33;;;;;;;-1.26;64.78;96357.38;4957652;29;20204;-81
2021/12/22 05:01:23;;;;;;;17.80;13.60;;;;;;;-1.28;64.34;96354.13;4956687;28;20212;-80
2021/12/22 05:03:49;;;;;;;17.20;14.23;;;;;;;-1.21;64.38;96355.44;4953822;28;20232;-81
2021/12/22 05:06:16;;;;;;;20.20;13.30;;;;;;;-0.80;93.31;96355.63;4953135;29;20200;-80
2021/12/22 05:08:44;;;;;;;19.63;13.80;;;;;;;-0.61;67.62;96352.84;4955076;29;20216;-80
2021/12/22 05:11:10;;;;;;;17.33;13.37;;;;;;;-0.61;64.74;96352.03;4955412;28;20878;-80
2021/12/22 05:13:36;;;;;;;17.80;12.87;;;;;;;-0.78;64.02;96355.53;4954790;28;20244;-81
2021/12/22 05:16:05;;;;;;;17.57;13.03;;;;;;;-0.94;64.93;96353.03;4954129;28;20208;-81
2021/12/22 05:18:49;;;;;;;18.20;12.93;;;;;;;-0.98;64.83;96360.91;4955294;28;20197;-81
2021/12/22 05:21:16;;;;;;;16.43;12.77;;;;;;;-1.03;64.65;96350.25;4955343;28;20209;-81
2021/12/22 05:23:44;;;;;;;16.67;12.70;;;;;;;-1.09;66.38;96351.38;4954756;28;20233;-81
2021/12/22 05:26:10;;;;;;;15.10;12.33;;;;;;;-1.01;66.85;96358.53;4955090;28;20589;-81
2021/12/22 05:28:37;;;;;;;16.10;12.30;;;;;;;-1.26;69.45;96357.38;4955441;28;20229;-80
2021/12/22 05:31:03;;;;;;;16.00;13.23;;;;;;;-1.41;70.47;96361.59;4955038;28;20271;-81
2021/12/22 05:33:29;;;;;;;15.90;13.33;;;;;;;-1.49;71.17;96365.41;4954203;28;20225;-81
2021/12/22 05:35:56;;;;;;;16.57;13.50;;;;;;;-1.53;71.62;96369.81;4953177;28;20220;-81
2021/12/22 05:38:22;;;;;;;16.30;13.07;;;;;;;-1.43;72.05;96363.38;4954167;28;20205;-81
2021/12/22 05:40:50;;;;;;;15.67;13.13;;;;;;;-1.48;72.14;96362.81;4949199;29;20201;-80
2021/12/22 05:43:17;;;;;;;17.13;13.10;;;;;;;-1.48;72.04;96367.03;4950054;28;20232;-80
2021/12/22 05:45:43;;;;;;;15.43;11.90;;;;;;;-1.55;72.31;96353.16;4957631;28;20227;-80
2021/12/22 05:48:10;;;;;;;15.53;12.77;;;;;;;-1.60;72.41;96358.44;4955548;28;20872;-81
2021/12/22 05:50:36;;;;;;;15.90;12.47;;;;;;;-1.53;72.14;96354.66;4955171;28;20201;-80
2021/12/22 05:53:03;;;;;;;16.97;13.03;;;;;;;-1.56;72.41;96352.34;4955562;28;20751;-80
2021/12/22 05:55:30;;;;;;;16.93;13.43;;;;;;;-1.50;72.64;96356.22;4956298;28;20611;-80
2021/12/22 05:57:57;;;;;;;20.47;13.63;;;;;;;-1.55;72.72;96355.66;4956023;29;20574;-81
2021/12/22 06:00:24;;;;;;;18.37;13.23;;;;;;;-1.51;73.08;96359.63;4956410;28;20744;-80
2021/12/22 06:02:51;;;;;;;16.30;12.73;;;;;;;-1.49;72.69;96368.75;4957381;28;20236;-82
2021/12/22 06:05:19;;;;;;;18.50;14.37;;;;;;;-1.47;72.85;96358.56;4958868;28;20205;-82
2021/12/22 06:07:45;;;;;;;18.17;12.80;;;;;;;-1.56;73.52;96364.94;4952951;28;20232;-82
2021/12/22 06:10:12;;;;;;;17.40;13.40;;;;;;;-1.64;74.06;96356.97;4957271;28;20207;-82
2021/12/22 06:12:39;;;;;;;17.90;13.53;;;;;;;-1.71;74.57;96362.41;4955241;28;20236;-82
2021/12/22 06:15:07;;;;;;;16.83;13.20;;;;;;;-1.66;74.18;96360.47;4955403;28;20212;-82
2021/12/22 06:17:34;;;;;;;16.20;12.43;;;;;;;-1.66;74.33;96363.81;4957246;28;20205;-82
2021/12/22 06:20:03;;;;;;;16.67;12.70;;;;;;;-1.73;74.61;96356.66;4956893;28;20259;-82
2021/12/22 06:22:31;;;;;;;17.43;12.30;;;;;;;-1.64;74.15;96358.69;4955724;28;20267;-83
2021/12/22 06:24:57;;;;;;;18.13;13.40;;;;;;;-1.69;74.40;96360.63;4955623;28;20208;-82
2021/12/22 06:27:24;;;;;;;16.80;13.13;;;;;;;-1.60;73.73;96352.56;4956502;28;20603;-82
2021/12/22 06:29:51;;;;;;;18.20;13.33;;;;;;;-1.52;73.93;96353.75;4959710;28;20207;-83
2021/12/22 06:34:49;;;;;;;17.57;13.67;;;;;;;-1.47;73.74;96351.81;4971730;28;20231;-81
2021/12/22 06:37:16;;;;;;;17.57;13.50;;;;;;;-1.54;74.21;96347.97;4977119;28;20204;-80
2021/12/22 06:39:42;;;;;;;20.10;14.23;;;;;;;-1.39;73.87;96353.94;4977182;28;20687;-80
2021/12/22 06:42:09;;;;;;;16.70;13.57;;;;;;;-1.35;73.59;96352.88;4967369;28;20227;-80
2021/12/22 06:44:36;;;;;;;17.53;13.97;;;;;;;-1.37;73.03;96364.75;4975892;28;20283;-79
2021/12/22 06:47:03;;;;;;;18.17;14.20;;;;;;;-1.30;72.75;96363.50;4975984;28;20220;-80
2021/12/22 06:49:31;;;;;;;19.67;14.23;;;;;;;-1.25;72.66;96360.72;4976076;28;20211;-80
2021/12/22 06:51:57;;;;;;;17.70;13.73;;;;;;;-1.23;73.04;96363.97;4976138;28;20231;-80
2021/12/22 06:54:25;;;;;;;19.07;14.10;;;;;;;-1.27;72.75;96362.53;4976101;28;20224;-80
2021/12/22 06:56:52;;;;;;;19.23;14.80;;;;;;;-1.26;74.20;96361.63;4975944;28;20205;-80
2021/12/22 06:59:18;;;;;;;19.27;14.27;;;;;;;-1.13;72.86;96362.56;4976267;28;20200;-80
2021/12/22 07:01:45;;;;;;;20.10;14.80;;;;;;;-1.19;72.34;96353.63;4975630;28;20239;-81
2021/12/22 07:04:12;;;;;;;18.13;14.03;;;;;;;-1.28;72.78;96363.41;4975906;28;20220;-80
2021/12/22 07:06:40;;;;;;;19.90;13.73;;;;;;;-1.36;72.78;96363.06;4975741;28;20200;-80
2021/12/22 07:09:08;;;;;;;17.37;13.57;;;;;;;-1.42;72.30;96356.63;4956696;28;20236;-80
2021/12/22 07:11:36;;;;;;;17.67;13.63;;;;;;;-1.39;73.11;96364.03;4968595;28;20209;-79
2021/12/22 07:14:26;;;;;;;17.43;14.10;;;;;;;-1.29;72.75;96356.75;4974148;28;20219;-80
2021/12/22 07:16:52;;;;;;;17.80;14.50;;;;;;;-1.31;72.89;96366.94;4980705;28;20208;-79
2021/12/22 07:19:19;;;;;;;19.97;14.13;;;;;;;-1.20;72.53;96363.81;4975391;28;20200;-80
2021/12/22 07:21:48;;;;;;;19.90;13.70;;;;;;;-1.29;72.97;96365.13;4974588;28;20730;-80
2021/12/22 07:24:15;;;;;;;16.87;13.60;;;;;;;-1.31;72.79;96358.53;4974622;28;20224;-81
2021/12/22 07:26:42;;;;;;;19.20;14.60;;;;;;;-1.32;72.94;96354.38;4975298;28;20208;-80
2021/12/22 07:29:09;;;;;;;22.03;14.17;;;;;;;-1.22;73.00;96368.13;4974363;28;20243;-79
2021/12/22 07:31:35;;;;;;;17.77;13.50;;;;;;;-1.30;72.90;96366.03;4970060;28;20219;-80
2021/12/22 07:34:11;;;;;;;17.83;13.90;;;;;;;-1.29;72.78;96365.13;4977492;28;20632;-80
2021/12/22 07:36:46;;;;;;;18.93;14.30;;;;;;;-1.17;72.81;96369.53;4974213;28;20599;-80
2021/12/22 07:39:13;;;;;;;20.80;14.53;;;;;;;-1.14;73.00;96371.03;4974294;28;20195;-80
2021/12/22 07:41:40;;;;;;;18.70;14.53;;;;;;;-1.28;72.97;96364.22;4974114;28;20212;-81
2021/12/22 07:44:06;;;;;;;21.33;15.17;;;;;;;-1.30;73.36;96358.44;4974264;28;20227;-80
2021/12/22 07:46:35;;;;;;;20.10;14.17;;;;;;;-1.38;73.29;96368.19;4978593;28;20686;-81
2021/12/22 07:49:02;;;;;;;17.83;13.37;;;;;;;-1.30;73.79;96370.25;4982284;28;20231;-80
2021/12/22 07:51:28;;;;;;;17.07;13.53;;;;;;;-1.25;73.00;96368.31;4973855;28;20808;-80
2021/12/22 07:53:55;;;;;;;20.60;14.47;;;;;;;-1.32;73.41;96370.34;4973695;28;20235;-80
2021/12/22 07:56:23;;;;;;;17.50;13.33;;;;;;;-1.14;72.84;96365.97;4973173;28;20210;-80
2021/12/22 07:58:49;;;;;;;15.70;13.20;;;;;;;-1.21;72.77;96367.25;4973733;28;20208;-80
2021/12/22 08:01:16;;;;;;;17.17;13.40;;;;;;;-1.15;72.94;96362.66;4973434;28;20204;-81
2021/12/22 08:03:42;;;;;;;17.97;14.00;;;;;;;-1.19;72.57;96366.25;4971455;28;20610;-78
2021/12/22 08:06:08;;;;;;;18.53;14.47;;;;;;;-1.20;73.66;96367.16;4972244;28;20684;-77
2021/12/22 08:08:35;;;;;;;17.87;13.87;;;;;;;-1.16;72.87;96361.03;4972792;28;20231;-78
2021/12/22 08:11:01;;;;;;;18.87;14.83;;;;;;;-1.31;73.63;96379.56;4988954;28;20227;-80
2021/12/22 08:13:29;;;;;;;20.57;14.50;;;;;;;-1.17;73.44;96369.53;4984470;28;20240;-80
2021/12/22 08:15:55;;;;;;;18.90;14.30;;;;;;;-1.01;73.03;96369.47;4975190;28;20200;-80
2021/12/22 08:18:23;;;;;;;21.30;14.97;;;;;;;-0.97;72.81;96383.56;4973794;28;20220;-80
2021/12/22 08:20:50;;;;;;;19.10;14.43;;;;;;;-1.05;72.89;96380.66;4974770;28;20192;-80
2021/12/22 08:23:18;;;;;;;18.17;14.30;;;;;;;-0.95;72.30;96386.78;4974245;28;20232;-80
2021/12/22 08:25:45;;;;;;;18.77;13.90;;;;;;;-0.99;72.01;96390.41;4978152;28;20227;-80
2021/12/22 08:28:11;;;;;;;17.33;14.23;;;;;;;-0.87;71.84;96389.72;4994898;28;20223;-80
2021/12/22 08:30:40;;;;;;;18.43;13.77;;;;;;;-0.85;71.57;96389.63;4994616;28;20210;-80
2021/12/22 08:33:13;;;;;;;18.97;13.73;;;;;;;-0.72;71.51;96393.88;4993303;28;20246;-80
2021/12/22 08:41:05;;;;;;;17.57;13.67;;;;;;;-0.70;71.18;96381.97;4974074;28;20229;-77
2021/12/22 08:43:31;;;;;;;17.63;13.63;;;;;;;-0.72;71.69;96395.59;4972451;28;20259;-77
2021/12/22 08:46:01;;;;;;;20.67;15.03;;;;;;;-0.84;72.21;96384.50;4973004;28;20204;-78
2021/12/22 08:48:27;;;;;;;16.97;13.73;;;;;;;-0.85;72.00;96387.09;4974853;28;20235;-78
2021/12/22 08:50:54;;;;;;;24.03;14.37;;;;;;;-0.94;71.88;96396.00;4973767;28;20217;-78
2021/12/22 08:53:21;;;;;;;17.27;13.67;;;;;;;-0.89;72.20;96401.63;4974193;28;20232;-80
2021/12/22 08:55:47;;;;;;;18.40;14.23;;;;;;;-0.80;71.85;96400.31;4974609;28;20200;-80
2021/12/22 08:58:13;;;;;;;16.03;13.30;;;;;;;-0.59;71.83;96396.56;4974151;28;20200;-80
2021/12/22 09:00:40;;;;;;;17.67;13.63;;;;;;;-0.14;70.08;96392.22;4974071;28;20214;-80
2021/12/22 09:03:08;;;;;;;18.90;14.53;;;;;;;-0.09;69.39;96393.56;4973955;28;20235;-80
2021/12/22 09:05:34;;;;;;;16.40;13.33;;;;;;;0.17;68.91;96383.59;4975568;28;20212;-80
2021/12/22 09:08:00;;;;;;;15.47;12.40;;;;;;;0.15;68.19;96391.28;4974310;28;20224;-79
2021/12/22 09:10:27;;;;;;;16.00;12.93;;;;;;;0.14;68.13;96391.38;4975103;28;20227;-80
2021/12/22 09:12:53;;;;;;;17.37;12.87;;;;;;;0.37;67.57;96389.97;4974319;28;20286;-80
2021/12/22 09:15:20;;;;;;;18.10;13.13;;;;;;;0.75;67.05;96388.41;4974142;28;20204;-80
2021/12/22 09:17:46;;;;;;;19.27;13.27;;;;;;;1.12;66.61;96394.47;4975051;28;20196;-80
2021/12/22 09:20:14;;;;;;;14.87;12.23;;;;;;;0.94;65.57;96390.59;4977560;28;20200;-80
2021/12/22 09:22:41;;;;;;;18.37;13.10;;;;;;;1.12;65.48;96391.13;4976784;28;20738;-80
2021/12/22 09:25:08;;;;;;;15.70;13.27;;;;;;;1.14;65.81;96400.28;4978033;28;20422;-80
2021/12/22 09:27:35;;;;;;;16.23;12.93;;;;;;;1.28;65.15;96410.34;4975520;28;20200;-79
2021/12/22 09:30:01;;;;;;;15.30;12.53;;;;;;;1.27;64.61;96408.72;4978921;28;21056;-79
2021/12/22 09:32:27;;;;;;;15.83;13.57;;;;;;;1.03;65.35;96411.09;4976620;28;20220;-80
2021/12/22 09:34:54;;;;;;;18.17;13.37;;;;;;;0.93;65.87;96404.19;4979112;28;20207;-80
2021/12/22 09:37:22;;;;;;;16.37;13.40;;;;;;;0.93;65.49;96399.91;4978204;28;20208;-78
2021/12/22 09:39:49;;;;;;;16.93;13.00;;;;;;;0.85;66.01;96398.75;4979502;28;20212;-78
2021/12/22 09:42:17;;;;;;;18.07;14.13;;;;;;;0.79;66.12;96404.22;4977262;28;20227;-80
2021/12/22 09:44:45;;;;;;;16.57;14.07;;;;;;;0.66;66.24;96410.06;4978626;28;20629;-78
2021/12/22 09:47:14;;;;;;;17.47;14.03;;;;;;;0.58;67.25;96407.19;4978923;28;20204;-78
2021/12/22 09:50:05;;;;;;;17.20;13.57;;;;;;;0.64;66.84;96406.00;4976452;28;20270;-80
2021/12/22 09:52:33;;;;;;;17.87;13.80;;;;;;;0.59;67.25;96408.81;4976386;28;20394;-80
2021/12/22 09:55:01;;;;;;;15.63;13.40;;;;;;;0.50;67.17;96406.84;4976806;28;20211;-78
2021/12/22 09:57:28;;;;;;;17.40;13.93;;;;;;;0.56;67.29;96403.97;4972250;28;20267;-79
2021/12/22 09:59:57;;;;;;;19.00;14.37;;;;;;;0.61;66.71;96398.56;4977625;28;20211;-79
2021/12/22 10:02:28;;;;;;;17.00;13.97;;;;;;;0.57;67.30;96397.97;4976345;28;20228;-80
2021/12/22 10:04:55;;;;;;;17.17;14.07;;;;;;;0.61;67.12;96396.03;4977773;28;20295;-79
2021/12/22 10:07:26;;;;;;;18.17;14.33;;;;;;;0.60;67.29;96399.47;4976396;28;20292;-78
2021/12/22 10:09:56;;;;;;;17.40;13.70;;;;;;;0.24;68.24;96388.19;4977814;28;20223;-79
2021/12/22 10:12:24;;;;;;;18.70;14.33;;;;;;;0.14;69.04;96394.72;4975832;28;20224;-77
2021/12/22 10:14:54;;;;;;;18.03;13.73;;;;;;;0.09;69.11;96393.38;4977585;28;20224;-80
2021/12/22 10:17:30;;;;;;;16.90;14.03;;;;;;;0.11;69.20;96378.91;4975521;28;20220;-79
2021/12/22 10:19:59;;;;;;;18.13;13.30;;;;;;;0.12;69.15;96383.06;4976331;28;20207;-79
2021/12/22 10:22:34;;;;;;;17.87;13.87;;;;;;;-0.06;69.50;96377.41;4974244;28;20257;-80
2021/12/22 10:25:08;;;;;;;15.90;13.60;;;;;;;0.03;69.36;96366.69;4974695;28;20203;-80
2021/12/22 10:27:35;;;;;;;18.37;14.00;;;;;;;-0.02;69.96;96351.00;4975551;28;20199;-79
2021/12/22 10:30:20;;;;;;;16.97;13.37;;;;;;;0.06;69.28;96353.84;4976426;28;20224;-80
2021/12/22 10:32:47;;;;;;;16.33;12.70;;;;;;;0.02;69.24;96354.94;4975507;28;20596;-80
2021/12/22 10:35:13;;;;;;;19.57;14.57;;;;;;;-0.04;69.32;96353.63;4975871;28;20559;-79
2021/12/22 10:37:43;;;;;;;20.27;14.47;;;;;;;-0.09;69.57;96349.72;4975735;28;20215;-79
2021/12/22 10:40:33;;;;;;;19.00;14.33;;;;;;;0.09;69.20;96346.09;4975938;28;20270;-80
2021/12/22 10:43:00;;;;;;;21.67;15.17;;;;;;;0.16;70.15;96339.75;4970426;28;20235;-79
2021/12/22 10:45:29;;;;;;;17.43;14.77;;;;;;;0.13;69.27;96339.13;4974912;28;20235;-80
2021/12/22 10:50:42;;;;;;;20.47;14.57;;;;;;;0.25;68.61;96336.63;4963859;28;20743;-79
2021/12/22 10:53:10;;;;;;;16.33;13.37;;;;;;;0.15;68.94;96324.66;4973443;28;20240;-79
2021/12/22 10:55:40;;;;;;;18.80;14.37;;;;;;;0.16;68.28;96319.50;4976988;28;20227;-79
2021/12/22 10:58:23;;;;;;;16.23;13.27;;;;;;;0.31;67.92;96317.72;4974557;28;20204;-78
2021/12/22 11:01:05;;;;;;;19.73;14.20;;;;;;;0.68;67.25;96314.47;4974748;28;20196;-80
2021/12/22 11:03:39;;;;;;;16.87;12.77;;;;;;;0.85;66.42;96315.13;4974655;28;20729;-79
2021/12/22 11:06:14;;;;;;;17.13;12.90;;;;;;;1.10;64.91;96314.34;4974324;28;20208;-80
2021/12/22 11:08:41;;;;;;;15.40;13.13;;;;;;;1.43;64.08;96309.56;4976123;28;20703;-80
2021/12/22 11:11:16;;;;;;;17.90;13.60;;;;;;;1.74;63.21;96313.38;4975782;28;20205;-80
2021/12/22 11:13:42;;;;;;;17.30;12.97;;;;;;;1.64;62.35;96314.94;4974997;28;20235;-78
2021/12/22 11:16:13;;;;;;;18.57;13.50;;;;;;;1.36;63.79;96304.09;4975245;28;20208;-80
2021/12/22 11:18:41;;;;;;;16.00;12.70;;;;;;;1.41;64.18;96296.16;4974322;28;20204;-80
2021/12/22 11:21:10;;;;;;;17.53;13.13;;;;;;;1.71;63.42;96283.16;4974639;28;20211;-79
2021/12/22 11:23:37;;;;;;;15.20;12.70;;;;;;;1.87;62.21;96283.72;4977245;28;20239;-80
2021/12/22 11:26:03;;;;;;;17.00;13.87;;;;;;;2.14;62.11;96277.59;4975911;28;20200;-80
2021/12/22 11:28:34;;;;;;;16.80;13.20;;;;;;;2.34;62.46;96277.81;4992460;28;20223;-80
2021/12/22 11:31:02;;;;;;;19.03;13.83;;;;;;;2.31;61.30;96272.97;4974482;28;20215;-80
2021/12/22 11:33:30;;;;;;;20.50;13.43;;;;;;;2.06;61.91;96271.34;4972751;28;20228;-80
2021/12/22 11:35:57;;;;;;;17.50;12.87;;;;;;;2.24;62.23;96265.91;4973538;28;20247;-79
2021/12/22 11:38:26;;;;;;;17.83;13.37;;;;;;;2.64;61.18;96263.84;4973010;28;20197;-79